Time;durP1;ratioP1;P1;durP2;ratioP2;P2;SDS_P1;SDS_P2;PMS_P1;PMS_P2;Temp;Humidity;BMP_temperature;BMP_pressure;BME280_temperature;BME280_humidity;BME280_pressure;Samples;Min_cycle;Max_cycle;Signal;HPM_P1;HPM_P2
2022/09/30 00:01:58;;;;;;;16.02;12.00;;;;;;;16.86;74.30;100619.84;1689791;83;20911;-92
2022/09/30 00:04:26;;;;;;;15.60;11.33;;;;;;;16.85;74.42;100615.50;1661986;86;20982;-92
2022/09/30 00:06:52;;;;;;;15.48;11.00;;;;;;;16.84;74.47;100614.67;1660374;85;21384;-91
2022/09/30 00:09:21;;;;;;;14.83;12.05;;;;;;;16.83;74.52;100614.80;1689403;83;20947;-92
2022/09/30 00:11:47;;;;;;;17.15;10.98;;;;;;;16.81;74.55;100615.41;1661828;86;20990;-92
2022/09/30 00:14:17;;;;;;;19.48;11.68;;;;;;;16.79;74.59;100614.20;1660252;86;20911;-93
2022/09/30 00:16:44;;;;;;;18.98;14.30;;;;;;;16.75;74.59;100616.27;1689522;83;20918;-90
2022/09/30 00:19:10;;;;;;;18.57;13.18;;;;;;;16.72;74.63;100611.25;1661652;85;21166;-92
2022/09/30 00:21:39;;;;;;;17.75;13.18;;;;;;;16.68;74.68;100612.97;1660143;85;20998;-91
2022/09/30 00:24:06;;;;;;;18.05;12.68;;;;;;;16.66;74.77;100616.23;1691599;82;21407;-91
2022/09/30 00:26:34;;;;;;;18.00;13.38;;;;;;;16.62;74.88;100614.32;1664684;83;20946;-91
2022/09/30 00:29:03;;;;;;;14.80;12.23;;;;;;;16.58;74.92;100604.50;1661062;85;20875;-94
2022/09/30 00:31:32;;;;;;;15.93;11.97;;;;;;;16.54;75.25;100603.08;1689777;83;21164;-91
2022/09/30 00:34:10;;;;;;;16.42;11.97;;;;;;;16.51;75.45;100603.32;1661802;85;20919;-91
2022/09/30 00:36:50;;;;;;;16.75;11.65;;;;;;;16.49;75.65;100605.26;1660343;85;21018;-92
2022/09/30 00:39:23;;;;;;;14.33;12.20;;;;;;;16.47;75.88;100605.03;1688760;83;20977;-90
2022/09/30 00:41:56;;;;;;;12.77;10.97;;;;;;;16.44;76.14;100610.11;1662101;85;20982;-90
2022/09/30 00:44:54;;;;;;;14.60;11.40;;;;;;;16.41;76.43;100604.23;1660616;85;21298;-93
2022/09/30 00:47:48;;;;;;;15.05;11.15;;;;;;;16.38;76.61;100605.33;1688790;85;21002;-91
2022/09/30 00:50:25;;;;;;;12.47;11.15;;;;;;;16.34;76.96;100599.48;1579804;89;20980;-90
2022/09/30 00:53:24;;;;;;;13.65;11.97;;;;;;;16.32;77.11;100597.94;1571769;90;20943;-90
2022/09/30 00:56:08;;;;;;;12.03;9.90;;;;;;;16.29;77.45;100596.85;1569999;91;20940;-93
2022/09/30 00:58:59;;;;;;;11.88;10.48;;;;;;;16.23;78.46;100600.88;1555412;91;21206;-91
2022/09/30 01:01:25;;;;;;;12.20;10.25;;;;;;;16.21;78.73;100597.97;1576385;90;21070;-90
2022/09/30 01:04:04;;;;;;;11.25;8.63;;;;;;;16.21;78.73;100597.97;1576516;90;20927;-91
2022/09/30 01:06:31;;;;;;;11.38;10.18;;;;;;;16.19;79.16;100594.16;1576742;90;20939;-90
2022/09/30 01:09:00;;;;;;;13.62;10.38;;;;;;;16.18;79.53;100596.43;1576644;90;20982;-91
2022/09/30 01:11:29;;;;;;;13.68;10.32;;;;;;;16.19;79.90;100593.32;1576602;89;21175;-89
2022/09/30 01:14:00;;;;;;;11.68;9.48;;;;;;;16.18;80.13;100591.62;1576392;90;20948;-92
2022/09/30 01:16:56;;;;;;;16.12;10.45;;;;;;;16.19;80.39;100589.36;1576377;90;21006;-89
2022/09/30 01:20:11;;;;;;;13.93;11.12;;;;;;;16.19;80.78;100591.51;1576368;89;20983;-91
2022/09/30 01:22:46;;;;;;;12.53;10.30;;;;;;;16.16;81.41;100586.45;1576368;90;21038;-93
2022/09/30 01:25:43;;;;;;;15.32;10.25;;;;;;;16.17;82.07;100588.15;1657215;85;21927;-90
2022/09/30 01:28:51;;;;;;;15.70;11.68;;;;;;;16.16;82.32;100591.28;1684061;85;21047;-93
2022/09/30 01:31:41;;;;;;;12.35;11.15;;;;;;;16.15;82.93;100604.14;1684018;85;21031;-89
2022/09/30 01:34:42;;;;;;;13.03;11.63;;;;;;;16.13;83.23;100601.28;1682949;85;20881;-91
2022/09/30 01:37:17;;;;;;;16.67;11.08;;;;;;;16.09;83.43;100594.06;1684258;84;20976;-92
2022/09/30 01:39:58;;;;;;;16.50;11.25;;;;;;;16.07;83.75;100597.32;1684339;85;21211;-91
2022/09/30 01:42:41;;;;;;;14.13;12.00;;;;;;;16.04;84.08;100590.14;1685200;84;20936;-89
2022/09/30 01:45:16;;;;;;;14.07;12.55;;;;;;;16.02;84.38;100596.05;1684204;85;21423;-91
2022/09/30 01:48:22;;;;;;;13.35;12.10;;;;;;;15.99;84.67;100585.24;1686551;83;21038;-91
2022/09/30 01:51:09;;;;;;;14.87;12.78;;;;;;;15.96;85.09;100589.44;1627801;84;20955;-91
2022/09/30 01:54:00;;;;;;;16.35;14.30;;;;;;;15.91;85.51;100589.83;1655810;86;21819;-90
2022/09/30 01:56:35;;;;;;;16.10;13.58;;;;;;;15.89;85.85;100585.64;1655473;86;21070;-89
2022/09/30 01:59:15;;;;;;;17.60;14.03;;;;;;;15.86;86.17;100584.58;1655640;86;20959;-90
2022/09/30 02:01:54;;;;;;;17.07;15.28;;;;;;;15.83;86.55;100583.49;1655234;86;21015;-91
2022/09/30 02:04:35;;;;;;;16.40;14.13;;;;;;;15.80;87.33;100580.63;1654216;86;21028;-89
2022/09/30 02:07:06;;;;;;;18.90;15.65;;;;;;;15.78;87.90;100589.66;1635516;86;21497;-90
2022/09/30 02:09:40;;;;;;;18.15;15.72;;;;;;;15.74;88.55;100589.92;1655433;86;20932;-90
2022/09/30 02:12:11;;;;;;;21.65;17.17;;;;;;;15.70;89.03;100587.62;1655691;86;20952;-89
2022/09/30 02:14:51;;;;;;;21.02;16.30;;;;;;;15.68;89.54;100603.60;1656246;86;20995;-90
2022/09/30 02:17:50;;;;;;;19.77;17.67;;;;;;;15.66;90.16;100608.66;1655498;86;21019;-90
2022/09/30 02:20:29;;;;;;;23.92;17.77;;;;;;;15.61;90.47;100607.72;1654739;86;21153;-92
2022/09/30 02:23:20;;;;;;;25.88;17.80;;;;;;;15.56;91.33;100633.66;1655718;86;21449;-90
2022/09/30 02:25:50;;;;;;;23.05;17.07;;;;;;;15.56;91.33;100633.66;1652426;85;21235;-91
2022/09/30 02:28:25;;;;;;;22.10;18.98;;;;;;;15.52;91.78;100632.26;1674372;85;20980;-91
2022/09/30 02:30:52;;;;;;;26.75;21.07;;;;;;;15.48;92.49;100632.14;1674676;85;26721;-92
2022/09/30 02:33:24;;;;;;;30.52;21.50;;;;;;;15.46;93.98;100627.46;1674398;85;21149;-93
2022/09/30 02:35:56;;;;;;;30.02;21.37;;;;;;;15.46;93.98;100627.46;1674346;85;20909;-91
2022/09/30 02:38:35;;;;;;;24.92;21.57;;;;;;;15.44;94.12;100626.25;1651709;85;20992;-91
2022/09/30 02:41:07;;;;;;;35.88;25.32;;;;;;;15.42;94.99;100626.85;1673752;85;20964;-92
2022/09/30 02:43:34;;;;;;;34.85;24.52;;;;;;;15.44;95.97;100634.18;1673554;85;21038;-92
2022/09/30 02:46:30;;;;;;;39.65;28.30;;;;;;;15.44;95.97;100634.18;1674463;85;21262;-91
2022/09/30 02:49:14;;;;;;;36.75;27.62;;;;;;;15.42;97.30;100639.23;1674216;85;20991;-90
2022/09/30 02:51:55;;;;;;;30.65;24.70;;;;;;;15.44;97.64;100638.63;1674494;85;21405;-90
2022/09/30 02:54:35;;;;;;;28.20;23.20;;;;;;;15.47;98.29;100641.88;1674851;85;21083;-92
2022/09/30 02:57:19;;;;;;;35.52;25.08;;;;;;;15.49;98.82;100636.45;1674426;85;20956;-89
2022/09/30 02:59:51;;;;;;;35.40;24.63;;;;;;;15.52;99.54;100647.63;1658109;86;21935;-91
2022/09/30 03:02:19;;;;;;;33.67;23.25;;;;;;;15.54;100.00;100650.98;1656748;86;20984;-90
2022/09/30 03:04:46;;;;;;;32.25;23.90;;;;;;;15.57;100.00;100657.00;1655586;86;20885;-91
2022/09/30 03:07:13;;;;;;;31.80;23.35;;;;;;;15.60;100.00;100660.70;1655677;86;21382;-90
2022/09/30 03:09:40;;;;;;;28.02;21.52;;;;;;;15.63;100.00;100659.98;1657459;86;20893;-90
2022/09/30 03:12:37;;;;;;;28.55;22.17;;;;;;;15.67;100.00;100657.91;1658485;82;21075;-90
2022/09/30 03:16:42;;;;;;;29.87;23.80;;;;;;;15.78;100.00;100656.59;1798340;79;23003;-92
2022/09/30 03:19:41;;;;;;;27.77;22.02;;;;;;;15.76;100.00;100659.84;1758562;80;20877;-92
2022/09/30 03:22:57;;;;;;;28.80;22.60;;;;;;;15.81;100.00;100660.33;1758559;80;21785;-90
2022/09/30 03:25:52;;;;;;;29.60;21.27;;;;;;;15.85;100.00;100662.22;1759974;80;20975;-91
2022/09/30 03:28:36;;;;;;;25.60;21.85;;;;;;;15.88;100.00;100661.50;1758990;80;21370;-89
2022/09/30 03:31:08;;;;;;;26.50;22.05;;;;;;;15.92;100.00;100658.14;1759296;81;20869;-91
2022/09/30 03:33:50;;;;;;;30.92;25.37;;;;;;;15.94;100.00;100656.17;1758798;80;20901;-92
2022/09/30 03:36:24;;;;;;;27.10;22.73;;;;;;;15.97;100.00;100657.27;1747194;80;21967;-91
2022/09/30 03:39:06;;;;;;;;;;;;;;;16.00;100.00;100662.78;1761049;80;20892;-91
2022/09/30 03:42:04;;;;;;;27.90;21.73;;;;;;;16.02;100.00;100661.69;1759613;80;20101;-92
2022/09/30 03:44:35;;;;;;;28.00;20.57;;;;;;;16.05;100.00;100669.39;1758572;80;21410;-90
2022/09/30 03:47:09;;;;;;;24.05;20.00;;;;;;;16.05;100.00;100662.77;1758625;80;20885;-91
2022/09/30 03:49:45;;;;;;;24.02;18.95;;;;;;;16.10;100.00;100669.00;1758689;80;21968;-90
2022/09/30 03:52:11;;;;;;;24.47;20.43;;;;;;;16.12;100.00;100666.59;1758878;81;20888;-91
2022/09/30 03:54:55;;;;;;;23.30;19.85;;;;;;;16.15;100.00;100658.38;1759070;80;20967;-91
2022/09/30 03:57:21;;;;;;;26.12;21.65;;;;;;;16.19;100.00;100663.44;1759472;80;21853;-90
2022/09/30 03:59:48;;;;;;;30.40;22.60;;;;;;;16.22;100.00;100665.82;1758865;81;20960;-92
2022/09/30 04:02:15;;;;;;;28.50;20.50;;;;;;;16.26;100.00;100665.44;1759009;80;21150;-90
2022/09/30 04:04:43;;;;;;;30.72;21.85;;;;;;;16.30;100.00;100678.77;1758896;81;20892;-92
2022/09/30 04:07:10;;;;;;;22.95;20.55;;;;;;;16.32;100.00;100672.88;1757929;80;20931;-93
2022/09/30 04:09:37;;;;;;;28.00;20.82;;;;;;;16.38;100.00;100670.18;1759066;80;20904;-92
2022/09/30 04:12:06;;;;;;;22.90;20.05;;;;;;;16.45;100.00;100684.60;1758760;80;21461;-91
2022/09/30 04:14:35;;;;;;;25.17;18.62;;;;;;;16.50;100.00;100692.98;1756968;80;21260;-92
2022/09/30 04:17:04;;;;;;;24.60;21.85;;;;;;;16.56;100.00;100688.52;1745925;81;20884;-92
2022/09/30 04:19:37;;;;;;;28.67;20.02;;;;;;;16.63;100.00;100680.02;1745741;81;20893;-92
2022/09/30 04:22:01;;;;;;;25.40;20.27;;;;;;;16.68;100.00;100683.14;1745939;81;21363;-91
2022/09/30 04:24:27;;;;;;;28.42;19.80;;;;;;;16.74;100.00;100685.25;1746666;82;21470;-91
2022/09/30 04:26:54;;;;;;;24.87;19.73;;;;;;;16.80;100.00;100685.26;1735337;82;21367;-90
2022/09/30 04:29:21;;;;;;;24.90;20.95;;;;;;;16.85;100.00;100696.29;1745913;82;20873;-91
2022/09/30 04:31:47;;;;;;;25.32;20.30;;;;;;;16.89;100.00;100698.55;1745525;81;20881;-91
2022/09/30 04:34:13;;;;;;;22.13;19.70;;;;;;;16.93;100.00;100697.31;1747271;78;20970;-91
2022/09/30 04:36:42;;;;;;;25.62;21.42;;;;;;;16.97;100.00;100689.95;1747414;78;20940;-91
2022/09/30 04:39:10;;;;;;;24.98;19.50;;;;;;;16.99;100.00;100684.87;1745394;81;21259;-92
2022/09/30 04:41:37;;;;;;;22.20;19.57;;;;;;;17.01;100.00;100679.45;1744996;81;20944;-93
2022/09/30 04:44:05;;;;;;;23.02;20.50;;;;;;;17.03;100.00;100671.35;1745277;81;21367;-91
2022/09/30 04:46:35;;;;;;;29.72;20.57;;;;;;;17.05;100.00;100669.41;1734899;82;20905;-92
2022/09/30 04:49:04;;;;;;;22.75;20.15;;;;;;;17.06;100.00;100671.11;1745242;81;20929;-92
2022/09/30 04:51:31;;;;;;;23.00;19.62;;;;;;;17.08;100.00;100682.41;1745153;81;21255;-93
2022/09/30 04:53:59;;;;;;;29.55;21.12;;;;;;;17.09;100.00;100692.03;1745059;81;20853;-92
2022/09/30 04:56:26;;;;;;;22.60;20.25;;;;;;;17.10;100.00;100702.50;1744976;82;20933;-94
2022/09/30 04:58:53;;;;;;;22.05;19.42;;;;;;;17.12;100.00;100710.30;1745083;81;20913;-92
2022/09/30 05:01:20;;;;;;;23.50;19.75;;;;;;;17.14;100.00;100710.55;1745152;81;20912;-92
2022/09/30 05:03:47;;;;;;;23.25;20.77;;;;;;;17.17;100.00;100720.88;1745208;81;21199;-94
2022/09/30 05:06:15;;;;;;;22.60;20.30;;;;;;;17.19;100.00;100724.23;1745287;82;20878;-93
2022/09/30 05:08:44;;;;;;;23.27;19.45;;;;;;;17.23;100.00;100722.63;1746207;82;20897;-93
2022/09/30 05:11:17;;;;;;;21.82;18.82;;;;;;;17.25;100.00;100722.84;1747827;79;20929;-94
2022/09/30 05:13:46;;;;;;;23.87;19.55;;;;;;;17.27;100.00;100724.05;1746454;81;21003;-93
2022/09/30 05:16:12;;;;;;;25.08;19.75;;;;;;;17.28;100.00;100725.25;1755915;80;22044;-93
2022/09/30 05:18:41;;;;;;;19.77;17.70;;;;;;;17.29;100.00;100732.70;1759873;81;20916;-92
2022/09/30 05:21:09;;;;;;;20.20;18.07;;;;;;;17.29;100.00;100733.55;1759758;81;20884;-92
2022/09/30 05:23:37;;;;;;;18.48;16.55;;;;;;;17.29;100.00;100722.94;1759021;81;21465;-92
2022/09/30 05:26:04;;;;;;;21.48;17.90;;;;;;;17.30;100.00;100724.63;1742324;81;21007;-93
2022/09/30 05:28:31;;;;;;;23.57;21.17;;;;;;;17.31;100.00;100721.00;1759965;81;21280;-88
2022/09/30 05:31:07;;;;;;;22.00;19.50;;;;;;;17.34;100.00;100731.81;1760454;81;20849;-89
2022/09/30 05:33:34;;;;;;;22.82;19.77;;;;;;;17.34;100.00;100736.66;1759178;80;21452;-92
2022/09/30 05:36:05;;;;;;;20.82;18.62;;;;;;;17.36;100.00;100739.15;1758340;80;20900;-90
2022/09/30 05:38:32;;;;;;;28.25;23.75;;;;;;;17.36;100.00;100747.11;1758229;81;21045;-92
2022/09/30 05:41:12;;;;;;;45.48;32.05;;;;;;;17.37;100.00;100756.75;1758633;81;20925;-91
2022/09/30 05:43:42;;;;;;;46.50;32.90;;;;;;;17.37;100.00;100760.23;1758284;81;20927;-92
2022/09/30 05:46:09;;;;;;;29.80;23.90;;;;;;;17.38;100.00;100759.74;1758336;81;20849;-89
2022/09/30 05:48:35;;;;;;;25.02;20.57;;;;;;;17.38;100.00;100772.50;1758591;81;20936;-92
2022/09/30 05:51:02;;;;;;;23.22;20.77;;;;;;;17.39;100.00;100763.59;1758871;80;20900;-94
2022/09/30 05:53:30;;;;;;;23.10;19.45;;;;;;;17.39;100.00;100772.05;1758595;81;21133;-91
2022/09/30 05:55:58;;;;;;;22.77;18.57;;;;;;;17.39;100.00;100764.09;1760360;81;20853;-91
2022/09/30 05:58:25;;;;;;;27.77;19.85;;;;;;;17.39;100.00;100754.31;1761043;78;20987;-90
2022/09/30 06:00:51;;;;;;;21.48;18.20;;;;;;;17.39;100.00;100738.91;1759598;81;21398;-94
2022/09/30 06:03:19;;;;;;;19.87;17.87;;;;;;;17.37;100.00;100745.66;1759016;81;21354;-89
2022/09/30 06:05:51;;;;;;;19.82;17.23;;;;;;;17.37;100.00;100750.13;1758781;81;21717;-90
2022/09/30 06:08:17;;;;;;;20.00;16.75;;;;;;;17.36;100.00;100749.30;1758853;81;20880;-92
2022/09/30 06:10:44;;;;;;;18.25;15.00;;;;;;;17.37;100.00;100739.52;1759685;80;21011;-91
2022/09/30 06:13:12;;;;;;;29.60;26.68;;;;;;;17.36;100.00;100747.97;1760713;78;21144;-95
2022/09/30 06:16:00;;;;;;;19.05;17.02;;;;;;;17.36;100.00;100745.78;1755721;80;20889;-96
2022/09/30 06:18:29;;;;;;;23.52;21.23;;;;;;;17.34;100.00;100737.98;1747084;81;21866;-93
2022/09/30 06:21:02;;;;;;;17.90;16.20;;;;;;;17.33;100.00;100749.54;1746257;81;20888;-88
2022/09/30 06:23:30;;;;;;;17.27;15.50;;;;;;;17.32;100.00;100733.75;1745967;81;20897;-91
2022/09/30 06:25:57;;;;;;;15.18;13.65;;;;;;;17.32;100.00;100747.88;1746251;81;20983;-92
2022/09/30 06:28:26;;;;;;;18.05;16.02;;;;;;;17.33;100.00;100743.41;1746317;81;21023;-93
2022/09/30 06:30:52;;;;;;;17.35;15.55;;;;;;;17.31;100.00;100743.53;1746283;81;21100;-93
2022/09/30 06:39:27;;;;;;;14.47;13.00;;;;;;;17.34;100.00;100763.16;1665487;85;21010;-87
2022/09/30 06:41:55;;;;;;;19.12;13.95;;;;;;;17.35;100.00;100767.97;1660806;85;21536;-87
2022/09/30 06:44:25;;;;;;;14.80;13.28;;;;;;;17.37;100.00;100781.94;1666505;85;21269;-84
2022/09/30 06:46:53;;;;;;;13.13;11.78;;;;;;;17.36;100.00;100779.78;1700627;83;20939;-85
2022/09/30 06:49:20;;;;;;;21.25;18.02;;;;;;;17.37;100.00;100789.89;1700463;83;21427;-86
2022/09/30 06:51:47;;;;;;;13.93;12.53;;;;;;;17.38;100.00;100796.37;1700420;83;21063;-86
2022/09/30 06:54:14;;;;;;;14.70;13.20;;;;;;;17.39;100.00;100780.00;1700138;83;20946;-87
2022/09/30 06:56:40;;;;;;;12.00;10.93;;;;;;;17.42;100.00;100786.84;1700390;84;21123;-86
2022/09/30 06:59:07;;;;;;;12.95;11.63;;;;;;;17.44;100.00;100774.30;1700550;83;20951;-85
2022/09/30 07:01:33;;;;;;;14.63;12.90;;;;;;;17.49;100.00;100775.56;1701496;84;20935;-86
2022/09/30 07:04:07;;;;;;;13.95;12.75;;;;;;;17.57;100.00;100777.06;1701338;83;20959;-85
2022/09/30 07:06:30;;;;;;;13.05;11.75;;;;;;;17.67;100.00;100782.89;1701073;83;20952;-87
2022/09/30 07:08:57;;;;;;;13.22;11.08;;;;;;;17.84;100.00;100782.29;1667042;85;21292;-87
2022/09/30 07:11:24;;;;;;;11.97;10.75;;;;;;;18.18;100.00;100776.63;1673328;84;20903;-85
2022/09/30 07:13:54;;;;;;;9.88;8.88;;;;;;;18.78;100.00;100776.03;1700903;84;20879;-87
2022/09/30 07:16:20;;;;;;;10.25;9.08;;;;;;;19.45;100.00;100768.03;1701076;83;20911;-87
2022/09/30 07:18:47;;;;;;;9.58;8.73;;;;;;;19.92;100.00;100769.33;1667190;84;20931;-86
2022/09/30 07:21:14;;;;;;;10.53;9.63;;;;;;;20.22;97.89;100772.63;1667372;85;21109;-89
2022/09/30 07:23:46;;;;;;;13.28;11.75;;;;;;;20.40;94.75;100782.79;1669018;83;21196;-85
2022/09/30 07:26:20;;;;;;;8.88;8.08;;;;;;;20.52;91.93;100794.55;1669077;83;20857;-86
2022/09/30 07:28:47;;;;;;;8.33;7.53;;;;;;;20.58;89.40;100816.13;1701696;83;20931;-86
2022/09/30 07:31:20;;;;;;;8.38;7.65;;;;;;;20.59;86.99;100808.48;1668670;83;20932;-88
2022/09/30 07:33:50;;;;;;;7.70;6.92;;;;;;;20.58;85.26;100816.63;1700592;84;21152;-88
2022/09/30 07:36:17;;;;;;;8.18;7.40;;;;;;;20.58;84.00;100820.63;1666470;84;21495;-87
2022/09/30 07:38:45;;;;;;;7.47;6.75;;;;;;;20.67;83.15;100811.20;1700175;83;20955;-88
2022/09/30 07:41:15;;;;;;;7.05;6.35;;;;;;;20.91;83.09;100815.08;1666659;86;21365;-88
2022/09/30 07:43:43;;;;;;;6.85;6.15;;;;;;;21.25;81.65;100800.98;1700593;84;21352;-88
2022/09/30 07:46:21;;;;;;;10.03;7.05;;;;;;;21.53;79.76;100801.17;1701544;84;21180;-86
2022/09/30 07:48:53;;;;;;;13.05;11.75;;;;;;;21.79;77.93;100800.78;1701139;83;20918;-86
2022/09/30 07:51:34;;;;;;;6.22;5.72;;;;;;;22.05;76.73;100815.40;1699714;84;20938;-87
2022/09/30 07:54:11;;;;;;;6.90;5.28;;;;;;;22.21;74.94;100822.62;1666189;85;20923;-86
2022/09/30 07:56:39;;;;;;;7.08;6.37;;;;;;;22.24;73.52;100833.86;1671164;85;20943;-87
2022/09/30 07:59:05;;;;;;;13.15;10.38;;;;;;;22.21;72.97;100834.16;1665980;84;21097;-86
2022/09/30 08:01:34;;;;;;;5.92;5.42;;;;;;;22.14;72.01;100841.99;1667247;85;20904;-87
2022/09/30 08:04:03;;;;;;;5.67;5.17;;;;;;;22.00;71.21;100851.94;1667710;85;20907;-86
2022/09/30 08:06:31;;;;;;;5.62;5.05;;;;;;;21.85;71.66;100863.72;1701416;84;20911;-87
2022/09/30 08:08:57;;;;;;;4.40;4.00;;;;;;;21.70;71.68;100848.81;1668233;85;20924;-85
2022/09/30 08:11:25;;;;;;;4.35;3.95;;;;;;;21.49;72.43;100834.50;1702582;83;21244;-86
2022/09/30 08:13:55;;;;;;;3.47;3.20;;;;;;;21.31;73.45;100835.03;1668731;84;20947;-86
2022/09/30 08:16:55;;;;;;;;;;;;;;;;;;;;;
2022/09/30 08:19:42;;;;;;;5.10;4.10;;;;;;;20.97;74.68;100847.80;1705342;82;21065;-86
2022/09/30 08:22:13;;;;;;;4.22;3.75;;;;;;;20.74;75.56;100832.75;1706580;84;21191;-85
2022/09/30 08:24:42;;;;;;;4.87;3.77;;;;;;;20.58;76.33;100819.29;1712345;82;21237;-84
2022/09/30 08:27:10;;;;;;;9.28;8.40;;;;;;;20.43;76.93;100830.92;1694577;82;20991;-87
2022/09/30 08:29:39;;;;;;;5.28;4.83;;;;;;;20.26;77.82;100845.42;1712316;82;21416;-87
2022/09/30 08:32:08;;;;;;;5.47;4.78;;;;;;;20.17;78.87;100848.15;1712672;84;21463;-88
2022/09/30 08:34:53;;;;;;;5.60;5.10;;;;;;;20.07;80.16;100849.02;1709293;79;21014;-87
2022/09/30 08:37:23;;;;;;;8.53;5.35;;;;;;;19.98;81.15;100866.38;1663500;85;21271;-84
2022/09/30 08:39:52;;;;;;;6.28;4.90;;;;;;;19.87;82.06;100853.59;1690276;83;20892;-85
2022/09/30 08:42:54;;;;;;;5.50;4.85;;;;;;;19.77;82.88;100850.66;1690377;81;21464;-87
2022/09/30 08:45:58;;;;;;;6.22;5.00;;;;;;;19.67;83.76;100847.51;1690006;85;20963;-85
2022/09/30 08:48:49;;;;;;;7.03;4.62;;;;;;;19.57;84.23;100853.34;1690309;83;20952;-87
2022/09/30 08:51:28;;;;;;;6.85;5.95;;;;;;;19.49;85.11;100841.75;1689865;83;22079;-86
2022/09/30 08:53:58;;;;;;;5.92;5.37;;;;;;;19.42;85.03;100847.63;1690202;83;20912;-85
2022/09/30 08:56:29;;;;;;;5.92;5.40;;;;;;;19.35;85.61;100849.70;1689954;85;20952;-84
2022/09/30 08:59:19;;;;;;;7.00;6.45;;;;;;;19.29;85.61;100862.23;1690553;83;20889;-86
2022/09/30 09:01:48;;;;;;;8.85;6.90;;;;;;;19.24;85.91;100870.14;1690486;83;21050;-90
2022/09/30 09:04:15;;;;;;;15.08;12.03;;;;;;;19.21;86.59;100899.68;1689691;83;22079;-86
2022/09/30 09:07:10;;;;;;;16.37;9.83;;;;;;;19.16;87.33;100954.24;1668314;84;20964;-86
2022/09/30 09:10:15;;;;;;;18.87;8.10;;;;;;;19.04;88.22;100978.30;1690188;85;21039;-87
2022/09/30 09:13:21;;;;;;;12.13;6.65;;;;;;;18.89;89.11;100915.89;1689877;83;20968;-84
2022/09/30 09:16:26;;;;;;;13.53;6.72;;;;;;;18.73;90.20;100898.31;1689665;83;20876;-87
2022/09/30 09:19:11;;;;;;;7.30;5.22;;;;;;;18.63;90.94;100887.66;1689151;83;21491;-87
2022/09/30 09:21:58;;;;;;;4.55;4.15;;;;;;;18.53;91.49;100885.48;1689446;85;21006;-85
2022/09/30 09:24:37;;;;;;;5.87;4.92;;;;;;;18.44;92.28;100882.67;1662127;85;20957;-85
2022/09/30 09:27:20;;;;;;;8.60;5.45;;;;;;;18.37;92.72;100877.55;1689728;83;20983;-86
2022/09/30 09:30:08;;;;;;;6.60;6.00;;;;;;;18.32;93.25;100874.48;1662205;83;21015;-87
2022/09/30 09:32:35;;;;;;;8.73;5.92;;;;;;;18.27;93.73;100863.91;1689437;85;21202;-85
2022/09/30 09:35:35;;;;;;;7.47;6.72;;;;;;;18.19;94.27;100860.12;1689369;83;20967;-86
2022/09/30 09:38:38;;;;;;;9.58;6.80;;;;;;;18.16;94.88;100860.87;1688888;85;20924;-87
2022/09/30 09:41:38;;;;;;;9.63;6.17;;;;;;;18.12;95.54;100863.43;1689412;85;20987;-85
2022/09/30 09:44:29;;;;;;;10.85;8.53;;;;;;;18.10;96.15;100866.73;1689871;83;21457;-87
2022/09/30 09:47:12;;;;;;;10.65;8.03;;;;;;;18.07;96.86;100873.12;1690619;83;21155;-86
2022/09/30 09:49:38;;;;;;;8.18;7.37;;;;;;;18.05;97.58;100867.11;1687403;83;20948;-86
2022/09/30 09:52:13;;;;;;;8.68;7.65;;;;;;;18.04;98.21;100858.81;1668277;85;20944;-87
2022/09/30 09:54:55;;;;;;;13.88;9.20;;;;;;;18.05;98.90;100854.34;1689345;83;20975;-88
2022/09/30 09:57:23;;;;;;;9.25;8.43;;;;;;;18.05;99.52;100851.69;1689705;83;21019;-85
2022/09/30 10:03:04;;;;;;;12.00;9.88;;;;;;;18.07;100.00;100855.88;1689641;85;20881;-86
2022/09/30 10:05:41;;;;;;;11.60;10.35;;;;;;;18.10;100.00;100852.97;1688267;83;21007;-87
2022/09/30 10:08:21;;;;;;;15.10;11.30;;;;;;;18.12;100.00;100843.06;1688588;83;20983;-86
2022/09/30 10:10:51;;;;;;;13.35;11.10;;;;;;;18.13;100.00;100842.07;1688897;85;20994;-86
2022/09/30 10:13:29;;;;;;;14.68;12.07;;;;;;;18.15;100.00;100831.33;1690332;82;21421;-85
2022/09/30 10:15:58;;;;;;;11.90;10.70;;;;;;;18.17;100.00;100837.34;1690431;83;20944;-87
2022/09/30 10:18:35;;;;;;;13.75;11.65;;;;;;;18.21;100.00;100834.28;1689641;82;21122;-84
2022/09/30 10:21:21;;;;;;;15.35;13.80;;;;;;;18.28;100.00;100829.27;1689471;85;21546;-84
2022/09/30 10:23:48;;;;;;;14.23;10.78;;;;;;;18.47;100.00;100828.93;1689677;83;20915;-87
2022/09/30 10:26:21;;;;;;;11.33;10.20;;;;;;;18.79;100.00;100824.23;1689550;83;21289;-86
2022/09/30 10:28:54;;;;;;;12.53;10.80;;;;;;;19.26;100.00;100812.34;1689547;83;20960;-85
2022/09/30 10:31:31;;;;;;;11.40;10.30;;;;;;;19.82;100.00;100816.44;1689502;82;20940;-86
2022/09/30 10:34:30;;;;;;;12.05;10.23;;;;;;;20.27;100.00;100817.78;1689436;83;21006;-88
2022/09/30 10:37:00;;;;;;;12.43;11.35;;;;;;;20.63;97.35;100820.99;1690546;82;20880;-85
2022/09/30 10:39:37;;;;;;;12.53;11.25;;;;;;;20.92;94.51;100832.77;1690453;81;21126;-86
2022/09/30 10:42:23;;;;;;;12.82;11.50;;;;;;;21.19;92.46;100835.80;1669431;83;20916;-85
2022/09/30 10:45:05;;;;;;;12.55;11.08;;;;;;;21.47;91.15;100824.48;1690781;81;21017;-86
2022/09/30 10:47:32;;;;;;;24.32;21.77;;;;;;;21.78;89.05;100837.33;1690618;81;20968;-86
2022/09/30 10:50:12;;;;;;;12.33;11.12;;;;;;;22.01;87.28;100840.28;1689490;82;20912;-87
2022/09/30 10:52:55;;;;;;;19.15;17.15;;;;;;;22.17;85.97;100846.67;1688777;83;21170;-85
2022/09/30 10:55:32;;;;;;;21.45;16.90;;;;;;;22.26;84.23;100851.08;1690154;83;21015;-86
2022/09/30 10:58:24;;;;;;;14.35;12.65;;;;;;;22.28;83.11;100855.76;1688181;83;20928;-87
2022/09/30 11:01:15;;;;;;;18.05;13.45;;;;;;;22.27;82.80;100854.89;1690498;83;21007;-86
2022/09/30 11:04:12;;;;;;;15.88;13.35;;;;;;;22.31;82.60;100861.59;1689373;83;20884;-88
2022/09/30 11:06:40;;;;;;;23.07;20.80;;;;;;;22.38;82.68;100859.11;1690075;85;21253;-85
2022/09/30 11:09:12;;;;;;;33.78;29.50;;;;;;;22.45;82.56;100857.44;1689686;83;20920;-86
2022/09/30 11:11:47;;;;;;;21.55;18.82;;;;;;;22.52;82.13;100854.95;1688776;85;21496;-85
2022/09/30 11:14:34;;;;;;;27.85;15.98;;;;;;;22.58;81.76;100860.16;1689376;85;20959;-86
2022/09/30 11:17:18;;;;;;;20.77;17.60;;;;;;;22.78;81.36;100860.68;1689545;83;20967;-86
2022/09/30 11:20:15;;;;;;;17.02;15.23;;;;;;;22.95;80.84;100839.12;1689323;83;21262;-85
2022/09/30 11:23:05;;;;;;;13.95;12.37;;;;;;;23.14;80.28;100833.97;1689991;85;20964;-85
2022/09/30 11:25:55;;;;;;;15.15;12.25;;;;;;;23.30;79.65;100834.92;1667560;83;20960;-86
2022/09/30 11:28:33;;;;;;;13.28;12.00;;;;;;;23.40;79.18;100830.74;1689225;85;20951;-86
2022/09/30 11:31:17;;;;;;;15.83;14.30;;;;;;;23.41;78.14;100839.09;1688782;85;20959;-85
2022/09/30 11:34:00;;;;;;;18.42;14.78;;;;;;;23.34;77.77;100825.08;1688614;85;21140;-88
2022/09/30 11:36:34;;;;;;;;;;;;;;;23.30;77.15;100829.09;1662356;84;20967;-86
2022/09/30 11:39:27;;;;;;;12.58;10.65;;;;;;;23.25;76.00;100818.55;1688611;83;20419;-84
2022/09/30 11:42:19;;;;;;;13.00;9.23;;;;;;;23.23;76.28;100824.58;1688618;85;21442;-87
2022/09/30 11:44:47;;;;;;;12.45;10.08;;;;;;;23.23;75.35;100824.58;1681943;83;20904;-85
2022/09/30 11:47:34;;;;;;;10.68;9.70;;;;;;;23.25;75.01;100826.07;1666669;83;21309;-86
2022/09/30 11:50:33;;;;;;;10.13;8.55;;;;;;;23.26;74.10;100834.96;1688335;83;20920;-84
2022/09/30 11:53:27;;;;;;;8.15;7.35;;;;;;;23.27;73.91;100825.91;1688124;83;20876;-84
2022/09/30 11:56:16;;;;;;;;;;;;;;;23.29;73.21;100822.05;1691113;83;21027;-85
2022/09/30 11:58:47;;;;;;;8.15;5.80;;;;;;;23.32;72.85;100825.75;1688240;84;20119;-85
2022/09/30 12:01:33;;;;;;;8.33;6.70;;;;;;;23.32;71.89;100825.75;1688137;83;21153;-87
2022/09/30 12:04:22;;;;;;;6.30;5.70;;;;;;;23.34;71.82;100831.77;1688096;83;21054;-86